sensor_id;sensor_type;location;lat;lon;timestamp;pressure;altitude;pressure_sealevel;temperature;humidity
51261;BME280;61705;46.228;24.812;2022-11-20T00:01:22;96988.13;;;5.26;95.59
51261;BME280;61705;46.228;24.812;2022-11-20T00:03:51;96989.72;;;5.30;95.37
51261;BME280;61705;46.228;24.812;2022-11-20T00:06:18;96972.28;;;5.30;95.18
51261;BME280;61705;46.228;24.812;2022-11-20T00:08:46;96963.88;;;5.20;95.45
51261;BME280;61705;46.228;24.812;2022-11-20T00:11:18;96965.56;;;5.23;95.76
51261;BME280;61705;46.228;24.812;2022-11-20T00:13:46;96954.09;;;5.26;95.43
51261;BME280;61705;46.228;24.812;2022-11-20T00:16:16;96953.31;;;5.23;95.56
51261;BME280;61705;46.228;24.812;2022-11-20T00:18:43;96968.19;;;5.23;95.43
51261;BME280;61705;46.228;24.812;2022-11-20T00:21:13;96963.69;;;5.27;95.26
51261;BME280;61705;46.228;24.812;2022-11-20T00:23:41;96961.72;;;5.32;94.92
51261;BME280;61705;46.228;24.812;2022-11-20T00:26:13;96962.75;;;5.28;95.09
51261;BME280;61705;46.228;24.812;2022-11-20T00:28:41;96977.56;;;5.29;95.10
51261;BME280;61705;46.228;24.812;2022-11-20T00:31:10;96975.97;;;5.25;94.96
51261;BME280;61705;46.228;24.812;2022-11-20T00:33:37;96970.72;;;5.25;95.23
51261;BME280;61705;46.228;24.812;2022-11-20T00:36:10;96971.56;;;5.25;95.12
51261;BME280;61705;46.228;24.812;2022-11-20T00:38:37;96981.13;;;5.26;95.44
51261;BME280;61705;46.228;24.812;2022-11-20T00:41:06;96989.88;;;5.27;95.43
51261;BME280;61705;46.228;24.812;2022-11-20T00:43:34;96975.88;;;5.26;95.78
51261;BME280;61705;46.228;24.812;2022-11-20T00:46:06;96977.66;;;5.26;95.79
51261;BME280;61705;46.228;24.812;2022-11-20T00:48:33;96976.88;;;5.23;95.88
51261;BME280;61705;46.228;24.812;2022-11-20T00:51:00;96995.22;;;5.23;95.91
51261;BME280;61705;46.228;24.812;2022-11-20T00:53:27;96996.16;;;5.21;96.19
51261;BME280;61705;46.228;24.812;2022-11-20T00:56:04;97002.22;;;5.23;96.19
51261;BME280;61705;46.228;24.812;2022-11-20T00:58:33;96994.47;;;5.20;96.28
51261;BME280;61705;46.228;24.812;2022-11-20T01:01:05;96998.78;;;5.21;96.36
51261;BME280;61705;46.228;24.812;2022-11-20T01:03:33;96984.78;;;5.22;96.45
51261;BME280;61705;46.228;24.812;2022-11-20T01:06:14;96983.13;;;5.19;96.64
51261;BME280;61705;46.228;24.812;2022-11-20T01:08:41;96967.28;;;5.22;96.86
51261;BME280;61705;46.228;24.812;2022-11-20T01:11:20;96964.66;;;5.22;97.03
51261;BME280;61705;46.228;24.812;2022-11-20T01:13:48;96958.69;;;5.19;97.05
51261;BME280;61705;46.228;24.812;2022-11-20T01:16:29;96954.19;;;5.22;97.31
51261;BME280;61705;46.228;24.812;2022-11-20T01:18:58;96948.75;;;5.29;96.97
51261;BME280;61705;46.228;24.812;2022-11-20T01:21:26;96949.47;;;5.32;96.69
51261;BME280;61705;46.228;24.812;2022-11-20T01:23:54;96942.59;;;5.30;96.73
51261;BME280;61705;46.228;24.812;2022-11-20T01:26:23;96937.41;;;5.28;96.90
51261;BME280;61705;46.228;24.812;2022-11-20T01:28:50;96935.09;;;5.20;96.95
51261;BME280;61705;46.228;24.812;2022-11-20T01:31:21;96931.53;;;5.21;96.94
51261;BME280;61705;46.228;24.812;2022-11-20T01:33:50;96926.25;;;5.23;97.03
51261;BME280;61705;46.228;24.812;2022-11-20T01:36:19;96935.81;;;5.24;96.79
51261;BME280;61705;46.228;24.812;2022-11-20T01:38:46;96926.25;;;5.23;97.23
51261;BME280;61705;46.228;24.812;2022-11-20T01:41:14;96933.34;;;5.19;97.13
51261;BME280;61705;46.228;24.812;2022-11-20T01:44:02;96941.16;;;5.21;97.43
51261;BME280;61705;46.228;24.812;2022-11-20T01:46:31;96948.91;;;5.24;97.43
51261;BME280;61705;46.228;24.812;2022-11-20T01:51:39;96952.28;;;5.28;97.56
51261;BME280;61705;46.228;24.812;2022-11-20T01:54:32;96949.69;;;5.26;97.77
51261;BME280;61705;46.228;24.812;2022-11-20T01:57:00;96946.19;;;5.27;97.61
51261;BME280;61705;46.228;24.812;2022-11-20T01:59:28;96946.13;;;5.29;97.81
51261;BME280;61705;46.228;24.812;2022-11-20T02:01:56;96942.59;;;5.30;97.70
51261;BME280;61705;46.228;24.812;2022-11-20T02:04:24;96937.59;;;5.23;97.74
51261;BME280;61705;46.228;24.812;2022-11-20T02:07:09;96938.22;;;5.30;97.70
51261;BME280;61705;46.228;24.812;2022-11-20T02:09:36;96926.75;;;5.33;97.49
51261;BME280;61705;46.228;24.812;2022-11-20T02:12:03;96921.78;;;5.27;97.61
51261;BME280;61705;46.228;24.812;2022-11-20T02:14:30;96917.50;;;5.24;97.72
51261;BME280;61705;46.228;24.812;2022-11-20T02:16:57;96914.91;;;5.22;97.80
51261;BME280;61705;46.228;24.812;2022-11-20T02:19:30;96916.63;;;5.23;97.99
51261;BME280;61705;46.228;24.812;2022-11-20T02:22:07;96909.66;;;5.22;98.21
51261;BME280;61705;46.228;24.812;2022-11-20T02:24:36;96915.94;;;5.18;97.89
51261;BME280;61705;46.228;24.812;2022-11-20T02:27:07;96917.63;;;5.19;98.15
51261;BME280;61705;46.228;24.812;2022-11-20T02:29:50;96908.03;;;5.20;98.56
51261;BME280;61705;46.228;24.812;2022-11-20T02:32:22;96899.16;;;5.24;98.26
51261;BME280;61705;46.228;24.812;2022-11-20T02:34:49;96903.53;;;5.23;98.35
51261;BME280;61705;46.228;24.812;2022-11-20T02:37:16;96886.97;;;5.23;98.21
51261;BME280;61705;46.228;24.812;2022-11-20T02:39:49;96876.34;;;5.26;98.31
51261;BME280;61705;46.228;24.812;2022-11-20T02:42:16;96875.50;;;5.26;98.38
51261;BME280;61705;46.228;24.812;2022-11-20T02:44:43;96866.88;;;5.23;98.19
51261;BME280;61705;46.228;24.812;2022-11-20T02:47:10;96875.59;;;5.24;98.39
51261;BME280;61705;46.228;24.812;2022-11-20T02:49:36;96860.94;;;5.18;98.41
51261;BME280;61705;46.228;24.812;2022-11-20T02:52:03;96868.75;;;5.20;98.30
51261;BME280;61705;46.228;24.812;2022-11-20T02:54:30;96863.44;;;5.21;98.41
51261;BME280;61705;46.228;24.812;2022-11-20T02:56:57;96854.63;;;5.24;98.56
51261;BME280;61705;46.228;24.812;2022-11-20T02:59:23;96854.66;;;5.22;98.50
51261;BME280;61705;46.228;24.812;2022-11-20T03:01:50;96865.84;;;5.28;98.68
51261;BME280;61705;46.228;24.812;2022-11-20T03:04:17;96870.22;;;5.27;98.24
51261;BME280;61705;46.228;24.812;2022-11-20T03:06:43;96869.31;;;5.28;98.18
51261;BME280;61705;46.228;24.812;2022-11-20T03:09:10;96870.28;;;5.26;98.12
51261;BME280;61705;46.228;24.812;2022-11-20T03:11:37;96860.78;;;5.23;98.08
51261;BME280;61705;46.228;24.812;2022-11-20T03:14:04;96863.41;;;5.23;98.17
51261;BME280;61705;46.228;24.812;2022-11-20T03:16:32;96863.44;;;5.21;98.16
51261;BME280;61705;46.228;24.812;2022-11-20T03:18:59;96859.16;;;5.19;98.47
51261;BME280;61705;46.228;24.812;2022-11-20T03:21:26;96856.56;;;5.19;98.50
51261;BME280;61705;46.228;24.812;2022-11-20T03:23:54;96850.41;;;5.20;98.62
51261;BME280;61705;46.228;24.812;2022-11-20T03:26:23;96846.81;;;5.22;98.61
51261;BME280;61705;46.228;24.812;2022-11-20T03:28:58;96852.78;;;5.26;98.64
51261;BME280;61705;46.228;24.812;2022-11-20T03:31:37;96847.63;;;5.25;98.66
51261;BME280;61705;46.228;24.812;2022-11-20T03:34:08;96850.25;;;5.25;98.75
51261;BME280;61705;46.228;24.812;2022-11-20T03:36:37;96847.53;;;5.26;98.49
51261;BME280;61705;46.228;24.812;2022-11-20T03:39:05;96856.31;;;5.25;98.53
51261;BME280;61705;46.228;24.812;2022-11-20T03:41:36;96859.78;;;5.26;98.66
51261;BME280;61705;46.228;24.812;2022-11-20T03:44:05;96856.31;;;5.25;98.68
51261;BME280;61705;46.228;24.812;2022-11-20T03:46:33;96864.91;;;5.29;98.68
51261;BME280;61705;46.228;24.812;2022-11-20T03:49:00;96869.19;;;5.31;98.63
51261;BME280;61705;46.228;24.812;2022-11-20T03:51:28;96865.84;;;5.28;98.92
51261;BME280;61705;46.228;24.812;2022-11-20T03:53:59;96852.03;;;5.22;98.98
51261;BME280;61705;46.228;24.812;2022-11-20T03:56:31;96847.63;;;5.25;99.11
51261;BME280;61705;46.228;24.812;2022-11-20T03:58:59;96847.72;;;5.21;98.98
51261;BME280;61705;46.228;24.812;2022-11-20T04:01:29;96839.22;;;5.16;99.29
51261;BME280;61705;46.228;24.812;2022-11-20T04:03:56;96847.00;;;5.18;99.30
51261;BME280;61705;46.228;24.812;2022-11-20T04:06:28;96845.97;;;5.22;99.13
51261;BME280;61705;46.228;24.812;2022-11-20T04:08:59;96848.53;;;5.23;99.18
51261;BME280;61705;46.228;24.812;2022-11-20T04:11:28;96848.44;;;5.27;99.21
51261;BME280;61705;46.228;24.812;2022-11-20T04:13:59;96842.38;;;5.25;99.18
51261;BME280;61705;46.228;24.812;2022-11-20T04:16:30;96832.75;;;5.25;99.21
51261;BME280;61705;46.228;24.812;2022-11-20T04:18:59;96833.09;;;5.16;99.41
51261;BME280;61705;46.228;24.812;2022-11-20T04:21:26;96826.25;;;5.12;99.38
51261;BME280;61705;46.228;24.812;2022-11-20T04:23:54;96815.78;;;5.12;99.61
51261;BME280;61705;46.228;24.812;2022-11-20T04:26:23;96800.69;;;5.18;99.31
51261;BME280;61705;46.228;24.812;2022-11-20T04:28:50;96802.59;;;5.15;99.33
51261;BME280;61705;46.228;24.812;2022-11-20T04:31:23;96795.81;;;5.09;99.58
51261;BME280;61705;46.228;24.812;2022-11-20T04:33:50;96797.47;;;5.12;99.58
51261;BME280;61705;46.228;24.812;2022-11-20T04:36:22;96800.88;;;5.14;99.71
51261;BME280;61705;46.228;24.812;2022-11-20T04:39:01;96805.09;;;5.18;99.62
51261;BME280;61705;46.228;24.812;2022-11-20T04:41:30;96804.34;;;5.14;99.55
51261;BME280;61705;46.228;24.812;2022-11-20T04:43:59;96792.44;;;5.06;99.79
51261;BME280;61705;46.228;24.812;2022-11-20T04:46:32;96770.63;;;5.07;99.98
51261;BME280;61705;46.228;24.812;2022-11-20T04:49:00;96763.59;;;5.07;100.00
51261;BME280;61705;46.228;24.812;2022-11-20T04:51:27;96764.47;;;5.08;100.00
51261;BME280;61705;46.228;24.812;2022-11-20T04:53:54;96747.81;;;5.09;100.00
51261;BME280;61705;46.228;24.812;2022-11-20T04:56:20;96752.22;;;5.08;100.00
51261;BME280;61705;46.228;24.812;2022-11-20T04:58:47;96750.31;;;5.12;100.00
51261;BME280;61705;46.228;24.812;2022-11-20T05:01:15;96749.47;;;5.11;100.00
51261;BME280;61705;46.228;24.812;2022-11-20T05:03:43;96745.94;;;5.12;100.00
51261;BME280;61705;46.228;24.812;2022-11-20T05:06:12;96725.91;;;5.11;100.00
51261;BME280;61705;46.228;24.812;2022-11-20T05:08:40;96680.59;;;5.09;100.00
51261;BME280;61705;46.228;24.812;2022-11-20T05:11:12;96649.47;;;5.02;100.00
51261;BME280;61705;46.228;24.812;2022-11-20T05:13:40;96647.06;;;4.97;100.00
51261;BME280;61705;46.228;24.812;2022-11-20T05:16:12;96703.00;;;4.94;100.00
51261;BME280;61705;46.228;24.812;2022-11-20T05:18:40;96718.94;;;4.88;100.00
51261;BME280;61705;46.228;24.812;2022-11-20T05:21:08;96695.34;;;4.90;100.00
51261;BME280;61705;46.228;24.812;2022-11-20T05:23:36;96677.78;;;4.92;100.00
51261;BME280;61705;46.228;24.812;2022-11-20T05:26:04;96662.81;;;4.95;100.00
51261;BME280;61705;46.228;24.812;2022-11-20T05:28:31;96664.47;;;4.98;100.00
51261;BME280;61705;46.228;24.812;2022-11-20T05:31:09;96675.78;;;4.98;100.00
51261;BME280;61705;46.228;24.812;2022-11-20T05:33:39;96663.53;;;4.99;100.00
51261;BME280;61705;46.228;24.812;2022-11-20T05:36:07;96650.44;;;4.99;100.00
51261;BME280;61705;46.228;24.812;2022-11-20T05:38:34;96654.06;;;4.96;100.00
51261;BME280;61705;46.228;24.812;2022-11-20T05:41:09;96690.75;;;4.95;100.00
51261;BME280;61705;46.228;24.812;2022-11-20T05:43:38;96713.59;;;4.91;100.00
51261;BME280;61705;46.228;24.812;2022-11-20T05:46:06;96733.56;;;4.94;100.00
51261;BME280;61705;46.228;24.812;2022-11-20T05:48:34;96733.50;;;4.95;100.00
51261;BME280;61705;46.228;24.812;2022-11-20T05:51:02;96721.03;;;5.02;100.00
51261;BME280;61705;46.228;24.812;2022-11-20T05:53:29;96749.81;;;5.02;100.00
51261;BME280;61705;46.228;24.812;2022-11-20T05:56:02;96760.06;;;5.08;100.00
51261;BME280;61705;46.228;24.812;2022-11-20T05:58:29;96734.63;;;5.12;100.00
51261;BME280;61705;46.228;24.812;2022-11-20T06:03:32;96736.19;;;5.16;100.00
51261;BME280;61705;46.228;24.812;2022-11-20T06:06:00;96741.50;;;5.14;100.00
51261;BME280;61705;46.228;24.812;2022-11-20T06:08:27;96750.81;;;5.21;100.00
51261;BME280;61705;46.228;24.812;2022-11-20T06:10:54;96753.31;;;5.25;100.00
51261;BME280;61705;46.228;24.812;2022-11-20T06:13:20;96753.94;;;5.31;100.00
51261;BME280;61705;46.228;24.812;2022-11-20T06:15:53;96760.16;;;5.29;99.94
51261;BME280;61705;46.228;24.812;2022-11-20T06:18:22;96767.16;;;5.28;99.73
51261;BME280;61705;46.228;24.812;2022-11-20T06:20:49;96779.16;;;5.34;99.61
51261;BME280;61705;46.228;24.812;2022-11-20T06:23:15;96776.25;;;5.41;99.64
51261;BME280;61705;46.228;24.812;2022-11-20T06:25:42;96779.78;;;5.40;99.34
51261;BME280;61705;46.228;24.812;2022-11-20T06:28:09;96775.44;;;5.39;99.02
51261;BME280;61705;46.228;24.812;2022-11-20T06:30:36;96771.94;;;5.40;99.25
51261;BME280;61705;46.228;24.812;2022-11-20T06:33:03;96756.81;;;5.47;99.15
51261;BME280;61705;46.228;24.812;2022-11-20T06:35:29;96744.28;;;5.54;99.08
51261;BME280;61705;46.228;24.812;2022-11-20T06:37:56;96730.09;;;5.59;98.84
51261;BME280;61705;46.228;24.812;2022-11-20T06:40:23;96731.75;;;5.62;98.95
51261;BME280;61705;46.228;24.812;2022-11-20T06:42:50;96755.88;;;5.70;98.83
51261;BME280;61705;46.228;24.812;2022-11-20T06:45:16;96742.72;;;5.72;98.76
51261;BME280;61705;46.228;24.812;2022-11-20T06:47:43;96745.00;;;5.79;98.70
51261;BME280;61705;46.228;24.812;2022-11-20T06:50:09;96741.13;;;5.88;98.72
51261;BME280;61705;46.228;24.812;2022-11-20T06:52:36;96743.00;;;5.86;98.23
51261;BME280;61705;46.228;24.812;2022-11-20T06:55:11;96744.69;;;5.87;98.13
51261;BME280;61705;46.228;24.812;2022-11-20T06:57:37;96749.81;;;5.90;98.05
51261;BME280;61705;46.228;24.812;2022-11-20T07:00:04;96761.00;;;5.95;97.89
51261;BME280;61705;46.228;24.812;2022-11-20T07:02:32;96769.63;;;5.97;97.91
51261;BME280;61705;46.228;24.812;2022-11-20T07:04:58;96793.09;;;6.00;97.47
51261;BME280;61705;46.228;24.812;2022-11-20T07:07:25;96801.69;;;6.04;97.26
51261;BME280;61705;46.228;24.812;2022-11-20T07:09:51;96806.81;;;6.07;96.64
51261;BME280;61705;46.228;24.812;2022-11-20T07:12:18;96790.13;;;6.09;96.81
51261;BME280;61705;46.228;24.812;2022-11-20T07:14:45;96779.38;;;6.15;96.54
51261;BME280;61705;46.228;24.812;2022-11-20T07:17:12;96779.41;;;6.14;96.72
51261;BME280;61705;46.228;24.812;2022-11-20T07:19:38;96786.09;;;6.21;96.59
51261;BME280;61705;46.228;24.812;2022-11-20T07:22:05;96776.47;;;6.22;96.46
51261;BME280;61705;46.228;24.812;2022-11-20T07:24:32;96786.69;;;6.28;96.39
51261;BME280;61705;46.228;24.812;2022-11-20T07:26:58;96779.63;;;6.30;95.95
51261;BME280;61705;46.228;24.812;2022-11-20T07:29:25;96778.69;;;6.31;95.89
51261;BME280;61705;46.228;24.812;2022-11-20T07:31:52;96782.88;;;6.35;96.05
51261;BME280;61705;46.228;24.812;2022-11-20T07:34:19;96781.84;;;6.39;95.66
51261;BME280;61705;46.228;24.812;2022-11-20T07:36:46;96769.50;;;6.41;95.48
51261;BME280;61705;46.228;24.812;2022-11-20T07:39:13;96762.56;;;6.40;95.51
51261;BME280;61705;46.228;24.812;2022-11-20T07:41:39;96752.91;;;6.40;95.59
51261;BME280;61705;46.228;24.812;2022-11-20T07:44:06;96738.94;;;6.40;95.50
51261;BME280;61705;46.228;24.812;2022-11-20T07:46:33;96731.00;;;6.41;95.51
51261;BME280;61705;46.228;24.812;2022-11-20T07:48:59;96730.06;;;6.43;95.28
51261;BME280;61705;46.228;24.812;2022-11-20T07:51:26;96722.94;;;6.46;95.43
51261;BME280;61705;46.228;24.812;2022-11-20T07:53:53;96734.16;;;6.50;95.62
51261;BME280;61705;46.228;24.812;2022-11-20T07:56:20;96741.72;;;6.56;95.45
51261;BME280;61705;46.228;24.812;2022-11-20T07:58:47;96745.06;;;6.59;95.09
51261;BME280;61705;46.228;24.812;2022-11-20T08:01:13;96741.72;;;6.56;94.41
51261;BME280;61705;46.228;24.812;2022-11-20T08:03:40;96749.56;;;6.57;94.24
51261;BME280;61705;46.228;24.812;2022-11-20T08:06:07;96758.06;;;6.62;93.96
51261;BME280;61705;46.228;24.812;2022-11-20T08:08:33;96776.16;;;6.69;93.91
51261;BME280;61705;46.228;24.812;2022-11-20T08:11:07;96789.25;;;6.70;93.42
51261;BME280;61705;46.228;24.812;2022-11-20T08:13:58;96783.81;;;6.73;93.17
51261;BME280;61705;46.228;24.812;2022-11-20T08:16:45;96782.66;;;6.80;93.20
51261;BME280;61705;46.228;24.812;2022-11-20T08:19:13;96796.50;;;6.84;93.00
51261;BME280;61705;46.228;24.812;2022-11-20T08:21:40;96784.34;;;6.81;93.10
51261;BME280;61705;46.228;24.812;2022-11-20T08:24:12;96780.44;;;6.90;93.01
51261;BME280;61705;46.228;24.812;2022-11-20T08:26:39;96797.09;;;6.91;92.86
51261;BME280;61705;46.228;24.812;2022-11-20T08:29:06;96805.00;;;6.89;92.27
51261;BME280;61705;46.228;24.812;2022-11-20T08:31:33;96809.47;;;6.87;92.13
51261;BME280;61705;46.228;24.812;2022-11-20T08:34:00;96807.63;;;6.89;92.16
51261;BME280;61705;46.228;24.812;2022-11-20T08:36:34;96803.69;;;6.99;92.17
51261;BME280;61705;46.228;24.812;2022-11-20T08:39:02;96793.75;;;7.06;92.56
51261;BME280;61705;46.228;24.812;2022-11-20T08:41:29;96802.91;;;7.16;92.36
51261;BME280;61705;46.228;24.812;2022-11-20T08:44:05;96795.88;;;7.17;92.10
51261;BME280;61705;46.228;24.812;2022-11-20T08:46:37;96792.19;;;7.21;92.25
51261;BME280;61705;46.228;24.812;2022-11-20T08:49:05;96784.28;;;7.21;92.40
51261;BME280;61705;46.228;24.812;2022-11-20T08:51:32;96792.75;;;7.27;92.15
51261;BME280;61705;46.228;24.812;2022-11-20T08:53:59;96781.09;;;7.33;92.40
51261;BME280;61705;46.228;24.812;2022-11-20T08:56:27;96785.06;;;7.42;92.29
51261;BME280;61705;46.228;24.812;2022-11-20T08:58:53;96794.53;;;7.46;91.91
51261;BME280;61705;46.228;24.812;2022-11-20T09:01:40;96799.78;;;7.46;91.85
51261;BME280;61705;46.228;24.812;2022-11-20T09:04:07;96808.28;;;7.51;91.75
51261;BME280;61705;46.228;24.812;2022-11-20T09:06:33;96806.78;;;7.45;91.67
51261;BME280;61705;46.228;24.812;2022-11-20T09:09:00;96813.34;;;7.36;90.81
51261;BME280;61705;46.228;24.812;2022-11-20T09:11:32;96808.22;;;7.33;91.02
51261;BME280;61705;46.228;24.812;2022-11-20T09:13:59;96818.75;;;7.33;91.06
51261;BME280;61705;46.228;24.812;2022-11-20T09:16:26;96812.50;;;7.36;91.09
51261;BME280;61705;46.228;24.812;2022-11-20T09:18:53;96815.19;;;7.34;90.97
51261;BME280;61705;46.228;24.812;2022-11-20T09:21:39;96815.75;;;7.41;91.07
51261;BME280;61705;46.228;24.812;2022-11-20T09:24:06;96815.47;;;7.47;90.91
51261;BME280;61705;46.228;24.812;2022-11-20T09:26:33;96809.94;;;7.53;90.96
51261;BME280;61705;46.228;24.812;2022-11-20T09:28:59;96808.81;;;7.59;90.58
51261;BME280;61705;46.228;24.812;2022-11-20T09:31:26;96813.19;;;7.58;90.49
51261;BME280;61705;46.228;24.812;2022-11-20T09:33:53;96819.31;;;7.59;90.00
51261;BME280;61705;46.228;24.812;2022-11-20T09:36:19;96810.56;;;7.58;90.18
51261;BME280;61705;46.228;24.812;2022-11-20T09:38:46;96812.34;;;7.58;89.98
51261;BME280;61705;46.228;24.812;2022-11-20T09:44:44;96817.44;;;7.61;89.91
51261;BME280;61705;46.228;24.812;2022-11-20T09:50:12;96810.91;;;7.70;90.00
51261;BME280;61705;46.228;24.812;2022-11-20T09:55:30;96810.59;;;7.76;90.11
51261;BME280;61705;46.228;24.812;2022-11-20T09:57:59;96809.41;;;7.83;90.28
51261;BME280;61705;46.228;24.812;2022-11-20T10:00:27;96817.44;;;7.80;89.44
51261;BME280;61705;46.228;24.812;2022-11-20T10:03:16;96821.13;;;7.76;89.08
51261;BME280;61705;46.228;24.812;2022-11-20T10:05:55;96818.44;;;7.77;89.33
51261;BME280;61705;46.228;24.812;2022-11-20T10:08:39;96815.78;;;7.77;89.42
51261;BME280;61705;46.228;24.812;2022-11-20T10:17:24;96834.25;;;7.95;88.77
51261;BME280;61705;46.228;24.812;2022-11-20T10:25:38;96797.03;;;8.02;88.95
51261;BME280;61705;46.228;24.812;2022-11-20T10:28:24;96800.59;;;8.01;88.50
51261;BME280;61705;46.228;24.812;2022-11-20T10:31:10;96800.03;;;7.95;88.21
51261;BME280;61705;46.228;24.812;2022-11-20T10:33:42;96797.31;;;7.96;88.37
51261;BME280;61705;46.228;24.812;2022-11-20T10:36:41;96803.47;;;7.97;88.65
51261;BME280;61705;46.228;24.812;2022-11-20T10:39:29;96801.03;;;7.92;88.56
51261;BME280;61705;46.228;24.812;2022-11-20T10:41:59;96803.63;;;7.94;88.78
51261;BME280;61705;46.228;24.812;2022-11-20T10:44:27;96808.78;;;7.95;88.90
51261;BME280;61705;46.228;24.812;2022-11-20T10:47:18;96802.44;;;7.99;88.86
51261;BME280;61705;46.228;24.812;2022-11-20T10:49:49;96804.47;;;7.94;89.10
51261;BME280;61705;46.228;24.812;2022-11-20T11:00:35;96797.72;;;8.06;88.91
51261;BME280;61705;46.228;24.812;2022-11-20T11:03:02;96788.84;;;8.08;89.03
51261;BME280;61705;46.228;24.812;2022-11-20T11:05:37;96792.47;;;8.06;88.78
51261;BME280;61705;46.228;24.812;2022-11-20T11:08:13;96798.66;;;8.05;88.43
51261;BME280;61705;46.228;24.812;2022-11-20T11:10:47;96798.38;;;8.11;88.62
51261;BME280;61705;46.228;24.812;2022-11-20T11:13:28;96817.19;;;8.21;88.52
51261;BME280;61705;46.228;24.812;2022-11-20T11:15:56;96823.28;;;8.21;88.07
51261;BME280;61705;46.228;24.812;2022-11-20T11:18:28;96798.75;;;8.21;88.21
51261;BME280;61705;46.228;24.812;2022-11-20T11:20:57;96787.16;;;8.25;88.01
51261;BME280;61705;46.228;24.812;2022-11-20T11:26:00;96804.88;;;8.21;88.10
51261;BME280;61705;46.228;24.812;2022-11-20T11:28:28;96802.00;;;8.26;87.85
51261;BME280;61705;46.228;24.812;2022-11-20T11:30:55;96796.19;;;8.19;87.76
51261;BME280;61705;46.228;24.812;2022-11-20T11:33:27;96778.72;;;8.18;87.85
51261;BME280;61705;46.228;24.812;2022-11-20T11:35:56;96766.63;;;8.14;88.09
51261;BME280;61705;46.228;24.812;2022-11-20T11:38:36;96779.66;;;8.17;88.06
51261;BME280;61705;46.228;24.812;2022-11-20T11:41:05;96791.09;;;8.16;88.27
51261;BME280;61705;46.228;24.812;2022-11-20T11:43:34;96783.19;;;8.16;88.10
51261;BME280;61705;46.228;24.812;2022-11-20T11:52:17;96773.91;;;8.09;87.99
51261;BME280;61705;46.228;24.812;2022-11-20T11:54:51;96775.06;;;8.03;88.07
51261;BME280;61705;46.228;24.812;2022-11-20T12:00:03;96781.59;;;8.14;88.42
51261;BME280;61705;46.228;24.812;2022-11-20T12:05:21;96793.94;;;8.12;88.65
51261;BME280;61705;46.228;24.812;2022-11-20T12:08:00;96796.72;;;8.08;89.03
51261;BME280;61705;46.228;24.812;2022-11-20T12:16:20;96757.56;;;8.02;90.13
51261;BME280;61705;46.228;24.812;2022-11-20T12:18:51;96752.00;;;8.08;90.24
51261;BME280;61705;46.228;24.812;2022-11-20T12:21:22;96761.44;;;8.13;90.19
51261;BME280;61705;46.228;24.812;2022-11-20T12:29:34;96768.31;;;7.98;90.61
51261;BME280;61705;46.228;24.812;2022-11-20T12:34:43;96784.25;;;7.95;90.84
51261;BME280;61705;46.228;24.812;2022-11-20T12:40:32;96772.66;;;7.99;91.05
51261;BME280;61705;46.228;24.812;2022-11-20T12:43:15;96787.69;;;7.97;90.94
51261;BME280;61705;46.228;24.812;2022-11-20T12:46:30;96779.00;;;7.95;90.95
51261;BME280;61705;46.228;24.812;2022-11-20T13:00:15;96784.66;;;7.87;91.64
51261;BME280;61705;46.228;24.812;2022-11-20T13:08:14;96767.31;;;7.83;92.29
51261;BME280;61705;46.228;24.812;2022-11-20T13:16:08;96764.38;;;7.89;92.48
51261;BME280;61705;46.228;24.812;2022-11-20T13:18:40;96759.25;;;7.86;92.70
51261;BME280;61705;46.228;24.812;2022-11-20T13:21:16;96758.56;;;7.82;92.82
51261;BME280;61705;46.228;24.812;2022-11-20T13:23:43;96764.97;;;7.77;93.00
51261;BME280;61705;46.228;24.812;2022-11-20T13:26:20;96764.19;;;7.75;93.28
51261;BME280;61705;46.228;24.812;2022-11-20T13:31:36;96784.16;;;7.79;93.30
51261;BME280;61705;46.228;24.812;2022-11-20T13:34:07;96782.59;;;7.75;93.36
51261;BME280;61705;46.228;24.812;2022-11-20T13:36:49;96775.78;;;7.71;93.32
51261;BME280;61705;46.228;24.812;2022-11-20T13:39:45;96782.91;;;7.69;93.60
51261;BME280;61705;46.228;24.812;2022-11-20T13:44:43;96786.41;;;7.69;93.47
51261;BME280;61705;46.228;24.812;2022-11-20T13:47:25;96790.72;;;7.70;93.57
51261;BME280;61705;46.228;24.812;2022-11-20T13:49:54;96784.91;;;7.64;93.52
51261;BME280;61705;46.228;24.812;2022-11-20T13:52:31;96796.28;;;7.64;93.35
51261;BME280;61705;46.228;24.812;2022-11-20T14:00:23;96796.56;;;7.58;93.95
51261;BME280;61705;46.228;24.812;2022-11-20T14:03:00;96813.13;;;7.60;93.88
51261;BME280;61705;46.228;24.812;2022-11-20T14:05:32;96820.16;;;7.59;93.87
51261;BME280;61705;46.228;24.812;2022-11-20T14:08:03;96818.16;;;7.65;93.87
51261;BME280;61705;46.228;24.812;2022-11-20T14:10:31;96828.09;;;7.58;93.99
51261;BME280;61705;46.228;24.812;2022-11-20T14:13:09;96822.84;;;7.58;94.19
51261;BME280;61705;46.228;24.812;2022-11-20T14:15:36;96817.59;;;7.58;94.08
51261;BME280;61705;46.228;24.812;2022-11-20T14:18:18;96807.44;;;7.50;93.98
51261;BME280;61705;46.228;24.812;2022-11-20T14:20:46;96811.84;;;7.50;94.16
51261;BME280;61705;46.228;24.812;2022-11-20T14:23:27;96807.44;;;7.50;94.30
51261;BME280;61705;46.228;24.812;2022-11-20T14:25:56;96808.38;;;7.49;94.50
51261;BME280;61705;46.228;24.812;2022-11-20T14:28:28;96813.56;;;7.51;94.47
51261;BME280;61705;46.228;24.812;2022-11-20T14:30:56;96822.44;;;7.48;94.41
51261;BME280;61705;46.228;24.812;2022-11-20T14:33:25;96817.31;;;7.45;94.82
51261;BME280;61705;46.228;24.812;2022-11-20T14:35:57;96812.00;;;7.47;94.88
51261;BME280;61705;46.228;24.812;2022-11-20T14:38:27;96804.41;;;7.41;95.14
51261;BME280;61705;46.228;24.812;2022-11-20T14:41:05;96806.78;;;7.45;95.12
51261;BME280;61705;46.228;24.812;2022-11-20T14:43:32;96803.31;;;7.45;95.23
51261;BME280;61705;46.228;24.812;2022-11-20T14:46:07;96808.28;;;7.51;95.33
51261;BME280;61705;46.228;24.812;2022-11-20T14:48:48;96811.16;;;7.46;94.93
51261;BME280;61705;46.228;24.812;2022-11-20T14:54:17;96822.66;;;7.44;94.75
51261;BME280;61705;46.228;24.812;2022-11-20T14:56:55;96831.25;;;7.47;94.79
51261;BME280;61705;46.228;24.812;2022-11-20T14:59:30;96825.41;;;7.41;94.73